createdAt,value
2022-10-12T00:00:51.849Z,87.4
2022-10-12T00:01:52.168Z,87.5
2022-10-12T00:02:51.856Z,87.5
2022-10-12T00:03:51.860Z,87.5
2022-10-12T00:04:51.875Z,87.4
2022-10-12T00:05:51.874Z,87.4
2022-10-12T00:06:51.881Z,87.3
2022-10-12T00:07:51.902Z,87.4
2022-10-12T00:08:51.913Z,87.3
2022-10-12T00:09:51.919Z,87.3
2022-10-12T00:10:51.935Z,87.3
2022-10-12T00:11:51.931Z,87.4
2022-10-12T00:12:51.947Z,87.4
2022-10-12T00:13:51.994Z,87.5
2022-10-12T00:14:52.001Z,87.6
2022-10-12T00:15:52.021Z,87.6
2022-10-12T00:16:52.013Z,87.6
2022-10-12T00:17:52.003Z,87.6
2022-10-12T00:18:52.011Z,87.6
2022-10-12T00:19:52.015Z,87.7
2022-10-12T00:20:52.031Z,87.7
2022-10-12T00:21:52.039Z,87.6
2022-10-12T00:22:52.049Z,87.7
2022-10-12T00:23:52.067Z,87.7
2022-10-12T00:24:52.070Z,87.8
2022-10-12T00:25:52.067Z,87.9
2022-10-12T00:26:52.086Z,87.8
2022-10-12T00:27:52.102Z,87.8
2022-10-12T00:28:52.291Z,87.7
2022-10-12T00:29:52.128Z,87.8
2022-10-12T00:30:52.123Z,87.8
2022-10-12T00:31:52.136Z,87.7
2022-10-12T00:32:52.150Z,87.7
2022-10-12T00:33:52.154Z,87.7
2022-10-12T00:34:52.165Z,87.7
2022-10-12T00:35:52.179Z,87.8
2022-10-12T00:36:52.184Z,87.8
2022-10-12T00:37:52.199Z,87.8
2022-10-12T00:38:52.213Z,87.8
2022-10-12T00:56:52.777Z,88.5
2022-10-12T00:57:52.382Z,88.4
2022-10-12T00:58:52.390Z,88.3
2022-10-12T00:59:52.399Z,88.1
2022-10-12T01:00:52.620Z,87.9
2022-10-12T01:01:52.437Z,87.8
2022-10-12T01:02:52.428Z,87.4
2022-10-12T01:03:52.453Z,87.5
2022-10-12T01:04:52.465Z,87.3
2022-10-12T01:05:52.469Z,87.1
2022-10-12T01:06:52.476Z,87.0
2022-10-12T01:07:52.488Z,86.7
2022-10-12T01:08:52.493Z,86.4
2022-10-12T01:09:52.515Z,86.3
2022-10-12T01:10:52.523Z,86.6
2022-10-12T01:11:52.523Z,86.4
2022-10-12T01:12:52.536Z,86.5
2022-10-12T01:13:52.543Z,86.5
2022-10-12T01:14:52.561Z,86.5
2022-10-12T01:15:52.569Z,86.0
2022-10-12T01:16:52.569Z,86.0
2022-10-12T01:17:52.581Z,86.1
2022-10-12T01:18:52.595Z,86.0
2022-10-12T01:19:57.483Z,86.0
2022-10-12T01:20:52.622Z,86.1
2022-10-12T01:21:52.623Z,85.5
2022-10-12T01:22:52.637Z,85.8
2022-10-12T01:23:52.648Z,85.8
2022-10-12T01:24:52.662Z,85.7
2022-10-12T01:25:52.667Z,85.7
2022-10-12T01:26:52.681Z,85.7
2022-10-12T01:27:52.684Z,85.7
2022-10-12T01:28:52.891Z,85.4
2022-10-12T01:29:52.699Z,85.0
2022-10-12T01:30:52.703Z,85.0
2022-10-12T01:31:52.714Z,84.9
2022-10-12T01:32:52.731Z,85.0
2022-10-12T01:33:52.731Z,84.9
2022-10-12T01:34:52.760Z,84.9
2022-10-12T01:35:52.756Z,84.8
2022-10-12T01:36:52.779Z,84.8
2022-10-12T01:37:52.793Z,84.9
2022-10-12T01:38:52.788Z,84.9
2022-10-12T01:39:52.808Z,84.9
2022-10-12T01:40:52.814Z,84.8
2022-10-12T01:41:52.821Z,84.9
2022-10-12T01:42:52.833Z,84.6
2022-10-12T01:43:52.837Z,84.6
2022-10-12T01:44:52.835Z,84.5
2022-10-12T01:45:52.852Z,84.6
2022-10-12T01:46:52.844Z,84.6
2022-10-12T01:47:52.884Z,84.6
2022-10-12T01:48:52.880Z,84.6
2022-10-12T01:49:52.876Z,84.4
2022-10-12T01:50:52.884Z,84.2
2022-10-12T01:51:52.896Z,84.3
2022-10-12T01:52:52.910Z,84.4
2022-10-12T01:53:52.922Z,84.4
2022-10-12T01:54:52.929Z,84.4
2022-10-12T01:55:52.932Z,84.5
2022-10-12T01:56:52.946Z,84.5
2022-10-12T01:57:52.961Z,84.3
2022-10-12T01:58:52.969Z,84.4
2022-10-12T01:59:52.986Z,84.4
2022-10-12T02:00:53.223Z,84.4
2022-10-12T02:01:53.005Z,84.1
2022-10-12T02:02:53.013Z,84.2
2022-10-12T02:03:53.028Z,84.2
2022-10-12T02:04:53.036Z,84.1
2022-10-12T02:05:53.042Z,83.9
2022-10-12T02:06:53.056Z,83.9
2022-10-12T02:07:53.068Z,83.9
2022-10-12T02:08:53.074Z,83.9
2022-10-12T02:09:53.082Z,83.9
2022-10-12T02:10:53.103Z,83.9
2022-10-12T02:11:53.114Z,83.8
2022-10-12T02:12:53.131Z,83.9
2022-10-12T02:13:53.131Z,83.7
2022-10-12T02:14:53.142Z,83.7
2022-10-12T02:15:53.149Z,83.7
2022-10-12T02:16:53.156Z,83.6
2022-10-12T02:17:53.178Z,83.7
2022-10-12T02:18:53.186Z,83.9
2022-10-12T02:19:53.192Z,83.9
2022-10-12T02:20:53.191Z,83.9
2022-10-12T02:21:53.213Z,83.9
2022-10-12T02:22:53.216Z,84.0
2022-10-12T02:23:53.237Z,83.9
2022-10-12T02:24:53.251Z,83.9
2022-10-12T02:25:53.251Z,83.9
2022-10-12T02:26:53.257Z,83.9
2022-10-12T02:27:53.319Z,83.9
2022-10-12T02:28:53.426Z,83.8
2022-10-12T02:29:53.290Z,83.7
2022-10-12T02:30:53.296Z,83.7
2022-10-12T02:31:53.303Z,83.7
2022-10-12T02:32:53.317Z,83.7
2022-10-12T02:33:53.334Z,83.7
2022-10-12T02:34:53.353Z,83.7
2022-10-12T02:35:53.354Z,83.6
2022-10-12T02:36:53.355Z,83.7
2022-10-12T02:37:53.367Z,83.7
2022-10-12T02:38:53.385Z,83.5
2022-10-12T02:39:53.395Z,83.6
2022-10-12T02:40:53.403Z,83.5
2022-10-12T02:41:53.424Z,83.5
2022-10-12T02:43:11.606Z,83.5
2022-10-12T02:43:53.438Z,83.4
2022-10-12T02:44:53.444Z,83.4
2022-10-12T02:45:53.457Z,83.3
2022-10-12T02:46:53.465Z,83.3
2022-10-12T02:47:53.485Z,83.3
2022-10-12T02:48:53.484Z,83.4
2022-10-12T02:49:53.495Z,83.4
2022-10-12T02:50:53.514Z,83.4
2022-10-12T02:51:53.524Z,83.5
2022-10-12T02:52:53.540Z,83.5
2022-10-12T02:53:53.543Z,83.6
2022-10-12T02:54:53.569Z,83.5
2022-10-12T02:55:53.581Z,83.5
2022-10-12T02:56:53.585Z,83.5
2022-10-12T02:57:53.604Z,83.5
2022-10-12T02:58:53.609Z,83.4
2022-10-12T02:59:53.619Z,83.4
2022-10-12T03:00:53.744Z,83.4
2022-10-12T03:01:53.640Z,83.4
2022-10-12T03:02:53.654Z,83.3
2022-10-12T03:03:53.662Z,83.4
2022-10-12T03:04:53.686Z,83.3
2022-10-12T03:05:53.691Z,83.4
2022-10-12T03:06:53.711Z,83.3
2022-10-12T03:07:53.719Z,83.4
2022-10-12T03:08:53.726Z,83.3
2022-10-12T03:09:53.725Z,83.3
2022-10-12T03:10:53.745Z,83.2
2022-10-12T03:11:53.757Z,83.2
2022-10-12T03:12:53.761Z,83.1
2022-10-12T03:13:53.764Z,83.1
2022-10-12T03:14:53.772Z,83.0
2022-10-12T03:15:53.786Z,83.0
2022-10-12T03:16:53.799Z,83.0
2022-10-12T03:17:53.798Z,82.8
2022-10-12T03:18:53.806Z,82.9
2022-10-12T03:19:53.819Z,82.9
2022-10-12T03:20:53.835Z,82.8
2022-10-12T03:21:53.835Z,82.8
2022-10-12T03:22:53.843Z,82.8
2022-10-12T03:23:53.844Z,82.8
2022-10-12T03:44:54.434Z,82.4
2022-10-12T03:45:54.107Z,82.4
2022-10-12T03:46:54.114Z,82.2
2022-10-12T03:47:54.119Z,82.2
2022-10-12T03:48:54.133Z,82.2
2022-10-12T03:49:54.141Z,82.2
2022-10-12T03:50:54.145Z,82.1
2022-10-12T03:51:54.149Z,82.0
2022-10-12T03:52:54.163Z,82.0
2022-10-12T03:53:54.180Z,82.0
2022-10-12T03:54:54.207Z,81.9
2022-10-12T03:55:54.197Z,82.0
2022-10-12T03:56:54.204Z,82.0
2022-10-12T03:57:54.223Z,81.9
2022-10-12T03:58:54.224Z,81.9
2022-10-12T03:59:54.235Z,81.9
2022-10-12T04:00:54.242Z,81.9
2022-10-12T04:01:54.646Z,81.9
2022-10-12T04:02:54.277Z,81.9
2022-10-12T04:03:54.289Z,81.9
2022-10-12T04:04:54.300Z,81.9
2022-10-12T04:05:54.297Z,81.9
2022-10-12T04:06:54.306Z,82.0
2022-10-12T04:07:54.312Z,82.0
2022-10-12T04:08:54.312Z,81.9
2022-10-12T04:09:54.328Z,81.8
2022-10-12T04:10:54.348Z,81.8
2022-10-12T04:11:54.355Z,81.8
2022-10-12T04:12:54.375Z,81.7
2022-10-12T04:13:54.383Z,81.7
2022-10-12T04:14:54.403Z,81.7
2022-10-12T04:15:54.404Z,81.7
2022-10-12T04:16:54.411Z,81.7
2022-10-12T04:17:54.437Z,81.7
2022-10-12T04:18:54.449Z,81.6
2022-10-12T04:19:54.461Z,81.6
2022-10-12T04:20:54.474Z,81.5
2022-10-12T04:21:54.507Z,81.6
2022-10-12T04:22:54.502Z,81.5
2022-10-12T04:23:54.542Z,81.5
2022-10-12T04:24:54.520Z,81.5
2022-10-12T04:25:54.524Z,81.4
2022-10-12T04:26:54.541Z,81.4
2022-10-12T04:27:54.558Z,81.3
2022-10-12T04:28:54.921Z,81.3
2022-10-12T04:29:54.555Z,81.4
2022-10-12T04:30:54.564Z,81.4
2022-10-12T04:31:54.564Z,81.4
2022-10-12T04:32:54.581Z,81.4
2022-10-12T04:33:54.586Z,81.4
2022-10-12T04:34:54.602Z,81.5
2022-10-12T04:35:54.609Z,81.4
2022-10-12T04:36:54.625Z,81.5
2022-10-12T04:37:54.631Z,81.4
2022-10-12T04:39:01.515Z,81.4
2022-10-12T04:39:54.643Z,81.4
2022-10-12T04:40:54.651Z,81.3
2022-10-12T04:41:54.666Z,81.3
2022-10-12T04:42:54.675Z,81.3
2022-10-12T04:43:54.706Z,81.4
2022-10-12T04:44:54.702Z,81.4
2022-10-12T04:45:54.716Z,81.4
2022-10-12T04:46:54.739Z,81.4
2022-10-12T04:47:54.741Z,81.4
2022-10-12T04:48:54.762Z,81.4
2022-10-12T04:49:54.761Z,81.4
2022-10-12T04:50:54.781Z,81.4
2022-10-12T04:51:54.783Z,81.4
2022-10-12T04:52:54.808Z,81.3
2022-10-12T04:53:54.805Z,81.3
2022-10-12T04:54:54.813Z,81.3
2022-10-12T04:55:54.841Z,81.4
2022-10-12T04:56:54.842Z,81.4
2022-10-12T04:57:54.854Z,81.4
2022-10-12T04:58:54.873Z,81.6
2022-10-12T04:59:54.885Z,81.8
2022-10-12T05:00:54.903Z,81.8
2022-10-12T05:01:55.169Z,82.0
2022-10-12T05:02:54.918Z,82.1
2022-10-12T05:03:54.942Z,82.3
2022-10-12T05:04:54.955Z,82.7
2022-10-12T05:05:54.981Z,82.7
2022-10-12T05:06:54.977Z,82.8
2022-10-12T05:07:54.981Z,83.1
2022-10-12T05:08:54.993Z,83.4
2022-10-12T05:09:55.004Z,83.5
2022-10-12T05:10:55.013Z,83.5
2022-10-12T05:11:55.017Z,83.6
2022-10-12T05:12:55.039Z,83.8
2022-10-12T05:13:55.036Z,84.0
2022-10-12T05:14:55.055Z,84.3
2022-10-12T05:15:55.152Z,84.1
2022-10-12T05:16:55.148Z,84.2
2022-10-12T05:17:55.118Z,84.5
2022-10-12T05:18:55.182Z,84.6
2022-10-12T05:19:55.279Z,84.9
2022-10-12T05:20:57.588Z,85.0
2022-10-12T05:21:55.131Z,85.1
2022-10-12T05:22:55.407Z,85.3
2022-10-12T05:23:55.334Z,85.4
2022-10-12T05:24:55.204Z,85.6
2022-10-12T05:25:55.251Z,85.4
2022-10-12T05:26:55.357Z,85.6
2022-10-12T05:27:55.353Z,85.5
2022-10-12T05:28:55.526Z,85.7
2022-10-12T05:29:55.236Z,85.8
2022-10-12T05:30:55.248Z,85.9
2022-10-12T05:31:55.514Z,86.2
2022-10-12T05:32:55.263Z,86.1
2022-10-12T05:33:55.268Z,85.9
2022-10-12T05:34:55.497Z,85.7
2022-10-12T05:35:57.034Z,85.8
2022-10-12T05:36:55.364Z,85.7
2022-10-12T05:37:55.455Z,85.7
2022-10-12T05:38:55.412Z,85.8
2022-10-12T05:39:55.328Z,85.9
2022-10-12T05:41:01.190Z,85.9
2022-10-12T05:41:55.480Z,85.9
2022-10-12T05:42:55.425Z,86.0
2022-10-12T05:43:55.374Z,85.9
2022-10-12T05:44:55.390Z,86.1
2022-10-12T05:45:55.574Z,86.2
2022-10-12T05:46:55.417Z,86.2
2022-10-12T05:47:55.419Z,86.2
2022-10-12T05:48:55.474Z,86.2
2022-10-12T05:49:55.443Z,86.2
2022-10-12T05:50:55.667Z,86.4
2022-10-12T05:51:55.524Z,86.4
2022-10-12T05:52:55.486Z,86.5
2022-10-12T05:53:55.492Z,86.5
2022-10-12T05:54:55.560Z,86.4
2022-10-12T05:55:55.522Z,86.5
2022-10-12T05:56:55.622Z,86.6
2022-10-12T05:57:55.663Z,86.6
2022-10-12T05:58:55.855Z,86.7
2022-10-12T05:59:55.581Z,86.7
2022-10-12T06:00:55.606Z,86.7
2022-10-12T06:01:55.742Z,86.8
2022-10-12T06:02:55.627Z,86.7
2022-10-12T06:03:55.647Z,86.7
2022-10-12T06:04:55.661Z,86.7
2022-10-12T06:05:55.675Z,87.0
2022-10-12T06:06:55.684Z,87.0
2022-10-12T06:07:55.681Z,87.1
2022-10-12T06:08:55.704Z,87.1
2022-10-12T06:09:55.711Z,87.1
2022-10-12T06:10:55.717Z,87.0
2022-10-12T06:11:55.729Z,87.1
2022-10-12T06:12:55.745Z,87.0
2022-10-12T06:13:55.743Z,87.1
2022-10-12T06:14:55.752Z,87.1
2022-10-12T06:15:55.785Z,87.0
2022-10-12T06:16:55.762Z,87.0
2022-10-12T06:17:55.772Z,87.0
2022-10-12T06:18:55.781Z,87.1
2022-10-12T06:19:55.799Z,87.1
2022-10-12T06:21:55.808Z,87.0
2022-10-12T06:22:55.810Z,86.9
2022-10-12T06:23:55.822Z,86.8
2022-10-12T06:24:55.829Z,86.8
2022-10-12T06:25:55.849Z,86.8
2022-10-12T06:26:55.854Z,86.7
2022-10-12T06:27:55.864Z,86.7
2022-10-12T06:28:56.315Z,86.8
2022-10-12T06:29:55.891Z,86.6
2022-10-12T06:30:55.901Z,86.6
2022-10-12T06:31:55.928Z,86.6
2022-10-12T06:32:55.930Z,86.6
2022-10-12T06:33:55.956Z,86.7
2022-10-12T06:34:55.950Z,86.6
2022-10-12T06:35:55.958Z,86.6
2022-10-12T06:37:02.309Z,86.6
2022-10-12T06:37:55.982Z,86.6
2022-10-12T06:38:55.997Z,86.5
2022-10-12T06:39:56.021Z,86.5
2022-10-12T06:40:56.145Z,86.5
2022-10-12T06:41:56.052Z,86.5
2022-10-12T06:42:58.849Z,86.5
2022-10-12T06:43:56.053Z,86.4
2022-10-12T06:44:56.069Z,86.4
2022-10-12T06:45:56.076Z,86.4
2022-10-12T06:46:56.172Z,86.3
2022-10-12T06:47:56.090Z,86.3
2022-10-12T06:48:56.105Z,86.4
2022-10-12T06:49:56.119Z,86.3
2022-10-12T06:50:56.129Z,86.3
2022-10-12T06:51:56.134Z,86.3
2022-10-12T06:52:56.148Z,86.4
2022-10-12T06:53:56.156Z,86.4
2022-10-12T06:54:56.169Z,86.4
2022-10-12T06:55:56.222Z,86.3
2022-10-12T06:56:59.011Z,86.3
2022-10-12T06:57:56.210Z,86.3
2022-10-12T06:58:56.222Z,86.2
2022-10-12T06:59:56.232Z,86.3
2022-10-12T07:00:56.237Z,86.3
2022-10-12T07:01:56.412Z,86.2
2022-10-12T07:02:56.252Z,86.2
2022-10-12T07:04:01.214Z,86.2
2022-10-12T07:04:56.316Z,86.2
2022-10-12T07:05:56.286Z,86.2
2022-10-12T07:06:56.297Z,86.1
2022-10-12T07:07:56.313Z,86.1
2022-10-12T07:08:56.328Z,86.1
2022-10-12T07:09:56.344Z,86.1
2022-10-12T07:10:59.296Z,86.0
2022-10-12T07:11:56.365Z,86.0
2022-10-12T07:12:56.374Z,85.9
2022-10-12T07:13:56.394Z,85.9
2022-10-12T07:14:56.399Z,85.8
2022-10-12T07:15:56.442Z,85.8
2022-10-12T07:16:56.427Z,85.7
2022-10-12T07:17:56.443Z,85.7
2022-10-12T07:18:56.440Z,85.6
2022-10-12T07:19:56.462Z,85.6
2022-10-12T07:20:56.471Z,85.6
2022-10-12T07:21:56.480Z,85.6
2022-10-12T07:22:56.496Z,85.5
2022-10-12T07:23:56.500Z,85.6
2022-10-12T07:24:56.511Z,85.5
2022-10-12T07:25:56.534Z,85.5
2022-10-12T07:26:56.548Z,85.4
2022-10-12T07:27:56.559Z,85.4
2022-10-12T07:28:56.845Z,85.4
2022-10-12T07:29:56.571Z,85.2
2022-10-12T07:30:56.591Z,85.2
2022-10-12T07:31:56.594Z,85.2
2022-10-12T07:32:56.629Z,85.2
2022-10-12T07:33:56.619Z,85.1
2022-10-12T07:34:56.628Z,85.1
2022-10-12T07:36:21.054Z,85.0
2022-10-12T07:37:00.183Z,84.9
2022-10-12T07:37:56.675Z,84.9
2022-10-12T07:38:56.704Z,84.8
2022-10-12T07:39:56.703Z,84.8
2022-10-12T07:40:56.744Z,84.7
2022-10-12T07:41:56.731Z,84.7
2022-10-12T07:43:16.567Z,84.7
2022-10-12T07:43:56.756Z,84.6
2022-10-12T07:44:56.770Z,84.4
2022-10-12T07:45:56.784Z,84.3
2022-10-12T07:46:56.791Z,84.3
2022-10-12T07:47:56.813Z,84.3
2022-10-12T07:48:56.820Z,84.3
2022-10-12T07:49:56.896Z,84.4
2022-10-12T07:50:56.907Z,84.3
2022-10-12T07:51:56.856Z,84.3
2022-10-12T07:52:56.876Z,84.2
2022-10-12T07:53:56.882Z,84.1
2022-10-12T07:54:56.891Z,84.1
2022-10-12T07:55:56.910Z,84.0
2022-10-12T07:56:56.924Z,83.9
2022-10-12T07:57:56.943Z,83.9
2022-10-12T07:58:56.937Z,83.9
2022-10-12T07:59:56.955Z,83.8
2022-10-12T08:00:56.964Z,83.8
2022-10-12T08:01:57.162Z,83.7
2022-10-12T08:02:56.991Z,83.6
2022-10-12T08:04:02.317Z,83.7
2022-10-12T08:04:57.015Z,83.5
2022-10-12T08:05:57.044Z,83.3
2022-10-12T08:06:57.041Z,83.2
2022-10-12T08:07:57.069Z,83.1
2022-10-12T08:08:57.074Z,83.0
2022-10-12T08:09:57.095Z,82.9
2022-10-12T08:10:57.104Z,82.7
2022-10-12T08:11:57.116Z,82.6
2022-10-12T08:12:57.130Z,82.5
2022-10-12T08:13:57.143Z,82.3
2022-10-12T08:14:57.154Z,82.3
2022-10-12T08:15:57.159Z,82.2
2022-10-12T08:16:57.167Z,82.2
2022-10-12T08:17:57.183Z,82.0
2022-10-12T08:18:57.194Z,81.8
2022-10-12T08:19:57.207Z,81.7
2022-10-12T08:20:57.218Z,81.6
2022-10-12T08:21:57.240Z,81.5
2022-10-12T08:22:57.246Z,81.5
2022-10-12T08:23:57.257Z,81.4
2022-10-12T08:24:57.281Z,81.2
2022-10-12T08:25:57.283Z,81.2
2022-10-12T08:27:01.849Z,80.8
2022-10-12T08:27:57.314Z,80.8
2022-10-12T08:28:57.677Z,80.7
2022-10-12T08:29:57.335Z,80.6
2022-10-12T08:30:57.349Z,80.5
2022-10-12T08:31:57.349Z,80.4
2022-10-12T08:32:57.381Z,80.3
2022-10-12T08:33:57.385Z,80.2
2022-10-12T08:34:57.401Z,80.1
2022-10-12T08:35:57.410Z,80.2
2022-10-12T08:36:57.420Z,80.0
2022-10-12T08:37:57.440Z,80.0
2022-10-12T08:38:57.447Z,80.0
2022-10-12T08:40:03.927Z,79.7
2022-10-12T08:40:57.469Z,79.7
2022-10-12T08:41:57.486Z,79.5
2022-10-12T08:42:57.497Z,79.3
2022-10-12T08:43:57.504Z,79.3
2022-10-12T08:44:57.509Z,79.2
2022-10-12T08:45:57.531Z,79.0
2022-10-12T08:46:57.542Z,79.0
2022-10-12T08:47:57.550Z,79.0
2022-10-12T08:48:57.555Z,78.9
2022-10-12T08:49:57.575Z,78.8
2022-10-12T08:51:57.594Z,78.2
2022-10-12T08:52:57.600Z,78.2
2022-10-12T08:53:57.632Z,77.9
2022-10-12T08:54:57.627Z,78.0
2022-10-12T08:55:57.644Z,78.0
2022-10-12T08:56:57.668Z,77.7
2022-10-12T08:57:57.674Z,77.7
2022-10-12T08:58:57.703Z,77.7
2022-10-12T08:59:57.707Z,77.6
2022-10-12T09:00:57.721Z,76.2
2022-10-12T09:01:58.108Z,76.4
2022-10-12T09:02:57.739Z,76.6
2022-10-12T09:03:57.746Z,76.7
2022-10-12T09:04:57.765Z,76.8
2022-10-12T09:05:57.767Z,76.8
2022-10-12T09:06:57.788Z,76.7
2022-10-12T09:07:57.798Z,76.3
2022-10-12T09:08:57.811Z,76.4
2022-10-12T09:09:57.840Z,76.4
2022-10-12T09:10:57.820Z,76.4
2022-10-12T09:11:57.840Z,76.3
2022-10-12T09:12:57.856Z,76.1
2022-10-12T09:13:57.870Z,75.8
2022-10-12T09:14:57.875Z,75.8
2022-10-12T09:15:57.894Z,75.7
2022-10-12T09:16:57.893Z,75.6
2022-10-12T09:17:57.926Z,75.6
2022-10-12T09:18:57.936Z,75.4
2022-10-12T09:19:57.942Z,75.0
2022-10-12T09:20:57.958Z,75.1
2022-10-12T09:21:57.980Z,75.0
2022-10-12T09:22:57.973Z,75.0
2022-10-12T09:23:57.993Z,74.9
2022-10-12T09:24:57.996Z,74.9
2022-10-12T09:25:58.010Z,74.8
2022-10-12T09:26:58.011Z,74.7
2022-10-12T09:27:58.023Z,74.4
2022-10-12T09:28:58.422Z,74.1
2022-10-12T09:29:58.051Z,74.1
2022-10-12T09:30:58.063Z,74.1
2022-10-12T09:31:58.108Z,73.6
2022-10-12T09:32:58.091Z,73.3
2022-10-12T09:33:58.110Z,73.0
2022-10-12T09:34:58.116Z,72.5
2022-10-12T09:35:58.119Z,72.2
2022-10-12T09:36:58.125Z,72.1
2022-10-12T09:37:58.143Z,72.5
2022-10-12T09:38:58.163Z,72.3
2022-10-12T09:39:58.168Z,72.3
2022-10-12T09:40:58.167Z,72.3
2022-10-12T09:41:58.184Z,72.0
2022-10-12T09:42:58.192Z,71.7
2022-10-12T09:43:58.218Z,71.7
2022-10-12T09:44:58.218Z,71.6
2022-10-12T09:45:58.240Z,70.9
2022-10-12T09:46:58.251Z,70.8
2022-10-12T09:47:58.279Z,70.9
2022-10-12T09:48:58.294Z,70.4
2022-10-12T09:49:58.305Z,70.2
2022-10-12T09:50:58.325Z,70.1
2022-10-12T09:51:58.335Z,70.0
2022-10-12T09:52:58.352Z,70.0
2022-10-12T09:53:58.358Z,70.1
2022-10-12T09:54:58.371Z,69.8
2022-10-12T09:55:58.398Z,69.8
2022-10-12T09:56:58.397Z,69.7
2022-10-12T09:57:58.423Z,69.3
2022-10-12T09:58:58.420Z,68.3
2022-10-12T09:59:58.449Z,68.7
2022-10-12T10:00:58.461Z,68.8
2022-10-12T10:01:58.629Z,69.0
2022-10-12T10:02:58.486Z,68.3
2022-10-12T10:03:58.519Z,68.3
2022-10-12T10:04:58.521Z,68.6
2022-10-12T10:05:58.541Z,67.9
2022-10-12T10:06:58.598Z,67.5
2022-10-12T10:07:58.600Z,67.9
2022-10-12T10:08:58.580Z,68.0
2022-10-12T10:09:58.602Z,66.8
2022-10-12T10:10:58.618Z,67.4
2022-10-12T10:11:58.678Z,67.1
2022-10-12T10:12:58.658Z,66.7
2022-10-12T10:13:58.671Z,67.1
2022-10-12T10:14:58.683Z,66.8
2022-10-12T10:15:58.697Z,66.1
2022-10-12T10:16:58.694Z,65.9
2022-10-12T10:17:58.708Z,66.1
2022-10-12T10:18:58.727Z,66.3
2022-10-12T10:19:58.729Z,66.5
2022-10-12T10:20:58.754Z,66.5
2022-10-12T10:21:58.778Z,66.4
2022-10-12T10:22:58.798Z,66.5
2022-10-12T10:23:58.794Z,66.2
2022-10-12T10:25:01.282Z,65.5
2022-10-12T10:25:58.827Z,65.7
2022-10-12T10:26:58.835Z,65.9
2022-10-12T10:27:58.836Z,65.5
2022-10-12T10:28:59.019Z,65.6
2022-10-12T10:30:29.386Z,65.7
2022-10-12T10:30:58.890Z,65.4
2022-10-12T10:31:58.885Z,64.4
2022-10-12T10:32:58.902Z,65.1
2022-10-12T10:33:58.906Z,65.0
2022-10-12T10:34:58.917Z,65.1
2022-10-12T10:35:58.919Z,65.3
2022-10-12T10:36:58.942Z,65.5
2022-10-12T10:37:58.948Z,65.0
2022-10-12T10:38:58.974Z,65.0
2022-10-12T10:39:59.012Z,65.0
2022-10-12T10:40:58.977Z,64.8
2022-10-12T10:41:59.000Z,64.8
2022-10-12T10:42:59.011Z,64.6
2022-10-12T10:43:59.010Z,64.7
2022-10-12T10:44:59.057Z,64.5
2022-10-12T10:45:59.033Z,64.9
2022-10-12T10:46:59.058Z,64.8
2022-10-12T10:47:59.059Z,64.4
2022-10-12T10:48:59.081Z,64.2
2022-10-12T10:49:59.096Z,64.0
2022-10-12T10:50:59.106Z,63.7
2022-10-12T10:51:59.115Z,63.1
2022-10-12T10:52:59.148Z,63.4
2022-10-12T10:53:59.145Z,63.4
2022-10-12T10:54:59.165Z,63.2
2022-10-12T10:55:59.172Z,61.9
2022-10-12T10:56:59.184Z,62.6
2022-10-12T10:57:59.197Z,62.4
2022-10-12T10:58:59.218Z,62.2
2022-10-12T11:00:37.700Z,61.6
2022-10-12T11:00:59.224Z,61.4
2022-10-12T11:01:59.383Z,61.1
2022-10-12T11:02:59.252Z,61.6
2022-10-12T11:03:59.260Z,62.0
2022-10-12T11:04:59.263Z,62.1
2022-10-12T11:05:59.280Z,62.6
2022-10-12T11:06:59.298Z,62.8
2022-10-12T11:07:59.310Z,62.5
2022-10-12T11:08:59.311Z,62.5
2022-10-12T11:09:59.322Z,62.3
2022-10-12T11:10:59.362Z,62.7
2022-10-12T11:11:59.343Z,62.1
2022-10-12T11:12:59.344Z,61.9
2022-10-12T11:13:59.441Z,61.9
2022-10-12T11:14:59.395Z,62.2
2022-10-12T11:15:59.477Z,62.3
2022-10-12T11:16:59.569Z,62.4
2022-10-12T11:17:59.448Z,62.5
2022-10-12T11:18:59.586Z,62.4
2022-10-12T11:19:59.473Z,62.3
2022-10-12T11:20:59.493Z,62.9
2022-10-12T11:21:59.495Z,62.8
2022-10-12T11:22:59.518Z,62.7
2022-10-12T11:23:59.507Z,62.5
2022-10-12T11:24:59.526Z,62.4
2022-10-12T11:25:59.583Z,62.3
2022-10-12T11:26:59.547Z,62.3
2022-10-12T11:27:59.577Z,62.3
2022-10-12T11:28:59.592Z,62.1
2022-10-12T11:30:10.309Z,61.9
2022-10-12T11:30:59.592Z,61.9
2022-10-12T11:31:59.602Z,61.6
2022-10-12T11:32:59.610Z,61.5
2022-10-12T11:33:59.610Z,62.2
2022-10-12T11:34:59.633Z,61.7
2022-10-12T11:35:59.639Z,61.7
2022-10-12T11:37:20.714Z,61.9
2022-10-12T11:37:59.682Z,61.9
2022-10-12T11:39:07.504Z,62.0
2022-10-12T11:39:59.697Z,62.4
2022-10-12T11:41:34.744Z,62.8
2022-10-12T11:42:22.083Z,61.5
2022-10-12T11:42:59.730Z,61.1
2022-10-12T11:43:59.752Z,60.9
2022-10-12T11:44:59.747Z,61.1
2022-10-12T11:45:59.757Z,61.6
2022-10-12T11:46:59.765Z,61.1
2022-10-12T11:47:59.778Z,61.9
2022-10-12T11:48:59.784Z,61.7
2022-10-12T11:49:59.806Z,61.7
2022-10-12T11:51:04.605Z,62.4
2022-10-12T11:51:59.815Z,62.8
2022-10-12T11:52:59.824Z,61.5
2022-10-12T11:53:59.836Z,61.3
2022-10-12T11:54:59.838Z,61.1
2022-10-12T11:55:59.846Z,61.0
2022-10-12T11:56:59.855Z,60.7
2022-10-12T11:57:59.863Z,60.7
2022-10-12T11:59:02.438Z,61.1
2022-10-12T11:59:59.874Z,60.9
2022-10-12T12:00:59.880Z,60.9
2022-10-12T12:01:59.887Z,61.6
2022-10-12T12:02:59.893Z,60.9
2022-10-12T12:04:59.904Z,62.4
2022-10-12T12:05:59.911Z,62.0
2022-10-12T12:06:59.912Z,60.9
2022-10-12T12:07:59.922Z,61.1
2022-10-12T12:08:59.936Z,60.8
2022-10-12T12:09:59.939Z,60.6
2022-10-12T12:10:59.942Z,60.7
2022-10-12T12:11:59.950Z,61.3
2022-10-12T12:12:59.956Z,61.3
2022-10-12T12:13:59.962Z,60.6
2022-10-12T12:14:59.970Z,60.6
2022-10-12T12:15:59.975Z,60.5
2022-10-12T12:16:59.983Z,60.1
2022-10-12T12:17:59.996Z,60.1
2022-10-12T12:18:59.992Z,60.6
2022-10-12T12:19:59.996Z,60.5
2022-10-12T12:21:00.009Z,60.0
2022-10-12T12:22:00.010Z,60.3
2022-10-12T12:23:00.023Z,60.4
2022-10-12T12:24:00.031Z,59.4
2022-10-12T12:25:00.031Z,59.8
2022-10-12T12:26:00.032Z,59.7
2022-10-12T12:27:00.042Z,60.6
2022-10-12T12:28:00.103Z,59.3
2022-10-12T12:29:00.312Z,59.1
2022-10-12T12:30:00.090Z,59.0
2022-10-12T12:31:00.195Z,59.2
2022-10-12T12:32:00.108Z,59.2
2022-10-12T12:33:00.086Z,58.5
2022-10-12T12:34:00.106Z,59.5
2022-10-12T12:35:01.226Z,60.6
2022-10-12T12:36:00.125Z,59.7
2022-10-12T12:37:00.131Z,59.5
2022-10-12T12:38:00.138Z,60.5
2022-10-12T12:39:00.144Z,60.2
2022-10-12T12:40:00.171Z,59.7
2022-10-12T12:41:00.405Z,59.4
2022-10-12T12:42:02.981Z,59.5
2022-10-12T12:43:00.180Z,58.9
2022-10-12T12:44:00.189Z,59.1
2022-10-12T12:45:00.207Z,59.7
2022-10-12T12:46:00.207Z,59.3
2022-10-12T12:47:00.238Z,59.3
2022-10-12T12:48:00.486Z,58.7
2022-10-12T12:49:00.231Z,58.7
2022-10-12T12:50:00.504Z,59.0
2022-10-12T12:51:00.480Z,59.8
2022-10-12T12:52:00.249Z,60.1
2022-10-12T12:53:00.257Z,58.9
2022-10-12T12:54:00.263Z,58.6
2022-10-12T12:55:00.282Z,58.7
2022-10-12T12:56:00.289Z,58.4
2022-10-12T12:57:00.290Z,58.2
2022-10-12T12:58:00.302Z,58.6
2022-10-12T12:59:00.302Z,58.6
2022-10-12T13:00:00.309Z,58.4
2022-10-12T13:01:00.931Z,57.9
2022-10-12T13:02:00.631Z,58.1
2022-10-12T13:03:00.333Z,58.3
2022-10-12T13:04:00.331Z,57.9
2022-10-12T13:05:00.353Z,57.7
2022-10-12T13:06:00.344Z,57.7
2022-10-12T13:07:00.357Z,57.9
2022-10-12T13:08:04.612Z,57.9
2022-10-12T13:09:00.377Z,57.6
2022-10-12T13:10:00.368Z,57.6
2022-10-12T13:11:00.384Z,57.6
2022-10-12T13:12:00.390Z,58.5
2022-10-12T13:13:00.388Z,58.0
2022-10-12T13:14:00.391Z,57.7
2022-10-12T13:15:00.406Z,58.0
2022-10-12T13:16:00.405Z,57.9
2022-10-12T13:18:00.416Z,57.4
2022-10-12T13:19:00.434Z,57.3
2022-10-12T13:20:00.455Z,57.5
2022-10-12T13:21:00.435Z,57.3
2022-10-12T13:22:00.443Z,57.1
2022-10-12T13:23:00.444Z,57.2
2022-10-12T13:24:00.453Z,57.1
2022-10-12T13:25:00.471Z,57.2
2022-10-12T13:26:00.475Z,57.1
2022-10-12T13:27:00.481Z,56.9
2022-10-12T13:28:00.482Z,57.3
2022-10-12T13:29:00.500Z,56.8
2022-10-12T13:30:00.734Z,56.7
2022-10-12T13:31:00.502Z,57.1
2022-10-12T13:32:00.505Z,57.1
2022-10-12T13:33:00.508Z,56.4
2022-10-12T13:34:00.546Z,56.5
2022-10-12T13:35:00.520Z,56.7
2022-10-12T13:36:00.533Z,56.6
2022-10-12T13:37:00.538Z,56.5
2022-10-12T13:38:00.536Z,56.5
2022-10-12T13:39:00.543Z,56.5
2022-10-12T13:40:00.831Z,55.6
2022-10-12T13:41:00.561Z,55.4
2022-10-12T13:42:00.562Z,56.1
2022-10-12T13:43:00.589Z,55.3
2022-10-12T13:44:00.594Z,55.3
2022-10-12T13:45:00.588Z,55.3
2022-10-12T13:46:00.591Z,54.9
2022-10-12T13:47:00.603Z,54.9
2022-10-12T13:48:00.632Z,55.2
2022-10-12T13:49:00.650Z,55.6
2022-10-12T13:50:00.944Z,55.9
2022-10-12T13:51:00.628Z,55.1
2022-10-12T13:52:00.673Z,55.5
2022-10-12T13:53:00.641Z,55.2
2022-10-12T13:54:00.671Z,55.0
2022-10-12T13:55:00.663Z,55.4
2022-10-12T13:56:00.666Z,55.3
2022-10-12T13:57:00.937Z,55.5
2022-10-12T13:58:00.686Z,55.6
2022-10-12T13:59:00.708Z,55.8
2022-10-12T14:00:01.062Z,56.3